Main page
METAR-TAF:

METAR-TAF

Airports :

Islay, Scotland

Islay Airport

latitude: 55-40-55N, longitude: 006-15-24W, elevation: 16 m

Current weather observation

The report was made 46 minutes ago, at 21:20 UTC
Wind 11 kt from the West/Northwest
Temperature 7°C
Humidity 93%
Pressure 1020 hPa
Visibility 10 km or more

METAR: EGPI 192120Z AUTO 29011KT 9999 SCT039/// BKN048/// 07/06 Q1020 RERA

Time: 22:06 (22:06 UTC)

Forecast

The report was made 7 hours and 58 minutes ago, at 14:08 UTC
Forecast valid from 19 at 15 UTC to 19 at 19 UTC
Wind 8 kt from the West/Southwest
Visibility 10 km or more
Scattered clouds at a height of 1500 ft
Temporary
from 19 at 15 UTC to 19 at 19 UTC
Visibility: 7000 m
Broken clouds at a height of 800 ft
rain

TAF: EGPI 191408Z 1915/1919 25008KT 9999 SCT015 TEMPO 1915/1919 7000 RA BKN008

Weather observations and forecasts of more than 4000 airports (METAR and TAF reports).

The available stations are represented by yellow and red dots on the map.

Hover mouse over dot to see the name of the station.

Then click to see weather observations and forecasts.

To change the map : click on the green buttons with a black cross to zoom in, on the green button with a dash to zoom out, or on the green arrows for adjacent maps.


METAR-TAF: